createdAt,value
2022-09-30T11:50:23.634Z,17.40
2022-09-30T11:53:34.263Z,19.27
2022-09-30T11:57:00.887Z,31.65
2022-09-30T12:00:19.099Z,14.45
2022-09-30T12:03:26.366Z,18.35
2022-09-30T12:06:49.533Z,21.08
2022-09-30T12:09:44.158Z,13.30
2022-09-30T12:12:33.228Z,20.58
2022-09-30T12:15:27.437Z,21.25
2022-09-30T12:18:43.439Z,17.80
2022-09-30T12:21:40.163Z,18.92
2022-09-30T12:24:40.123Z,19.02
2022-09-30T12:28:02.028Z,16.13
2022-09-30T12:30:56.544Z,17.00
2022-09-30T12:34:00.477Z,18.27
2022-09-30T12:36:51.150Z,12.98
2022-09-30T12:40:04.378Z,17.48
2022-09-30T12:43:23.705Z,13.45
2022-09-30T12:46:36.796Z,17.50
2022-09-30T12:49:26.931Z,19.90
2022-09-30T12:52:21.985Z,14.02
2022-09-30T12:55:28.303Z,14.25
2022-09-30T12:58:31.714Z,28.98
2022-09-30T13:01:28.423Z,17.58
2022-09-30T13:04:33.730Z,20.10
2022-09-30T13:11:40.106Z,13.88
2022-09-30T13:14:44.093Z,22.02
2022-09-30T13:17:36.712Z,12.63
2022-09-30T13:20:59.442Z,13.43
2022-09-30T13:23:49.226Z,15.43
2022-09-30T13:26:42.658Z,13.35
2022-09-30T13:29:40.079Z,14.80
2022-09-30T13:32:36.659Z,12.85
2022-09-30T13:35:35.912Z,16.48
2022-09-30T13:38:35.698Z,17.42
2022-09-30T13:41:26.322Z,17.25
2022-09-30T13:45:13.270Z,17.65
2022-09-30T13:48:14.735Z,12.63
2022-09-30T13:51:14.775Z,14.40
2022-09-30T13:54:11.871Z,16.33
2022-09-30T13:57:03.072Z,17.50
2022-09-30T14:00:00.639Z,15.52
2022-09-30T14:03:23.626Z,16.05
2022-09-30T14:06:23.235Z,16.92
2022-09-30T14:09:23.762Z,18.90
2022-09-30T14:12:37.496Z,20.23
2022-09-30T14:15:34.907Z,18.55
2022-09-30T14:18:47.659Z,13.85
2022-09-30T14:21:48.593Z,14.02
2022-09-30T14:24:39.568Z,15.70
2022-09-30T14:27:59.912Z,14.57
2022-09-30T14:31:08.101Z,13.32
2022-09-30T14:33:58.641Z,22.33
2022-09-30T14:36:50.947Z,17.13
2022-09-30T14:39:41.706Z,19.25
2022-09-30T14:42:34.036Z,18.83
2022-09-30T14:45:27.978Z,20.17
2022-09-30T14:48:22.384Z,20.75
2022-09-30T14:51:14.818Z,18.13
2022-09-30T14:54:05.351Z,18.35
2022-09-30T14:56:54.866Z,17.08
2022-09-30T14:59:46.587Z,20.95
2022-09-30T15:02:38.818Z,19.67
2022-09-30T15:05:28.630Z,15.05
2022-09-30T15:08:21.112Z,20.25
2022-09-30T15:11:09.658Z,17.80
2022-09-30T15:14:18.896Z,17.60
2022-09-30T15:17:22.855Z,15.98
2022-09-30T15:20:37.873Z,20.42
2022-09-30T15:23:33.865Z,17.25
2022-09-30T15:26:49.186Z,20.05
2022-09-30T15:29:38.249Z,17.48
2022-09-30T15:32:37.081Z,18.17
2022-09-30T15:35:27.094Z,19.08
2022-09-30T15:38:26.774Z,19.75
2022-09-30T15:41:15.601Z,19.58
2022-09-30T15:44:04.640Z,21.00
2022-09-30T15:47:09.165Z,18.27
2022-09-30T15:49:57.964Z,21.67
2022-09-30T15:52:47.392Z,22.80
2022-09-30T15:55:44.491Z,27.23
2022-09-30T15:58:36.208Z,23.60
2022-09-30T16:01:33.611Z,19.88
2022-09-30T16:04:26.784Z,20.63
2022-09-30T16:07:20.087Z,21.73
2022-09-30T16:10:20.822Z,25.02
2022-09-30T16:13:16.285Z,25.40
2022-09-30T16:16:15.562Z,26.92
2022-09-30T16:19:21.835Z,23.25
2022-09-30T16:22:57.507Z,20.60
2022-09-30T16:25:46.699Z,23.77
2022-09-30T16:28:35.714Z,25.33
2022-09-30T16:31:25.421Z,25.50
2022-09-30T16:34:27.214Z,25.77
2022-09-30T16:37:20.742Z,29.00
2022-09-30T16:40:25.522Z,25.67
2022-09-30T16:43:17.923Z,34.40
2022-09-30T16:46:07.688Z,27.40
2022-09-30T16:48:56.495Z,23.80
2022-09-30T16:51:45.606Z,25.17
2022-09-30T16:54:34.741Z,23.48
2022-09-30T16:57:23.857Z,28.05
2022-09-30T17:00:19.217Z,22.17
2022-09-30T17:03:08.274Z,23.25
2022-09-30T17:06:00.738Z,23.70
2022-09-30T17:08:50.373Z,29.00
2022-09-30T17:11:45.691Z,22.55
2022-09-30T17:14:34.248Z,19.85
2022-09-30T17:17:25.335Z,20.55
2022-09-30T17:20:17.102Z,20.15
2022-09-30T17:23:10.145Z,25.65
2022-09-30T17:26:01.829Z,24.90
2022-09-30T17:28:53.549Z,26.58
2022-09-30T17:31:46.692Z,22.27
2022-09-30T17:34:40.553Z,25.10
2022-09-30T17:37:32.582Z,24.90
2022-09-30T17:40:40.751Z,18.55
2022-09-30T17:43:30.037Z,22.05
2022-09-30T17:57:11.789Z,18.00
2022-09-30T18:00:00.996Z,21.20
2022-09-30T18:02:50.510Z,19.73
2022-09-30T18:05:46.213Z,22.95
2022-09-30T18:08:36.814Z,24.30
2022-09-30T18:15:37.774Z,24.70
2022-09-30T18:18:48.314Z,20.20
2022-09-30T18:21:40.158Z,19.10
2022-09-30T18:30:50.365Z,18.05
2022-09-30T18:33:42.308Z,17.42
2022-09-30T18:36:34.291Z,18.73
2022-09-30T18:39:28.697Z,18.23
2022-09-30T18:42:21.267Z,20.42
2022-09-30T18:45:12.922Z,18.30
2022-09-30T18:48:01.901Z,25.75
2022-09-30T18:51:06.415Z,18.20
2022-09-30T18:54:16.714Z,20.30
2022-09-30T18:57:07.835Z,18.85
2022-09-30T19:00:42.372Z,18.02
2022-09-30T19:03:34.251Z,18.23
2022-09-30T19:06:23.377Z,20.52
2022-09-30T19:09:19.441Z,18.98
2022-09-30T19:12:08.638Z,19.30
2022-09-30T19:14:57.127Z,21.67
2022-09-30T19:18:07.415Z,17.50
2022-09-30T19:20:56.518Z,18.02
2022-09-30T19:24:08.161Z,20.85
2022-09-30T19:26:59.676Z,21.70
2022-09-30T19:29:48.321Z,15.73
2022-09-30T19:32:37.333Z,17.05
2022-09-30T19:35:38.378Z,23.55
2022-09-30T19:38:37.602Z,19.83
2022-09-30T19:41:30.951Z,21.33
2022-09-30T19:44:21.693Z,21.05
2022-09-30T19:47:11.578Z,18.63
2022-09-30T19:50:00.822Z,18.02
2022-09-30T19:52:57.045Z,20.52
2022-09-30T19:55:51.012Z,22.23
2022-09-30T19:58:52.794Z,20.88
2022-09-30T20:01:41.920Z,21.98
2022-09-30T20:04:30.291Z,22.30
2022-09-30T20:07:19.121Z,20.35
2022-09-30T20:10:08.018Z,21.00
2022-09-30T20:12:56.586Z,17.30
2022-09-30T20:15:51.008Z,23.85
2022-09-30T20:18:41.346Z,23.92
2022-09-30T20:21:30.623Z,25.77
2022-09-30T20:24:19.641Z,22.23
2022-09-30T20:27:08.095Z,24.75
2022-09-30T20:29:56.546Z,19.63
2022-09-30T20:32:45.574Z,24.40
2022-09-30T20:35:37.111Z,21.98
2022-09-30T20:38:26.014Z,19.90
2022-09-30T20:41:17.289Z,16.70
2022-09-30T20:44:07.662Z,19.65
2022-09-30T20:46:56.149Z,19.92
2022-09-30T20:49:44.391Z,21.88
2022-09-30T20:52:32.609Z,22.70
2022-09-30T20:55:21.078Z,23.67
2022-09-30T20:58:10.445Z,22.25
2022-09-30T21:01:08.706Z,22.52
2022-09-30T21:03:57.087Z,19.15
2022-09-30T21:06:45.304Z,20.52
2022-09-30T21:09:36.780Z,20.60
2022-09-30T21:12:24.865Z,17.83
2022-09-30T21:15:13.325Z,23.15
2022-09-30T21:18:03.818Z,17.73
2022-09-30T21:20:57.679Z,19.98
2022-09-30T21:23:46.713Z,18.48
2022-09-30T21:26:35.757Z,22.35
2022-09-30T21:29:24.046Z,20.45
2022-09-30T21:32:12.563Z,18.00
2022-09-30T21:35:01.696Z,19.55
2022-09-30T21:37:52.010Z,19.95
2022-09-30T21:40:40.434Z,23.85
2022-09-30T21:43:33.185Z,19.80
2022-09-30T21:46:22.654Z,16.73
2022-09-30T21:49:21.569Z,18.80
2022-09-30T21:52:11.081Z,23.75
2022-09-30T21:54:59.102Z,19.33
2022-09-30T21:57:47.654Z,22.58
2022-09-30T22:00:36.328Z,22.02
2022-09-30T22:03:25.249Z,23.23
2022-09-30T22:06:13.594Z,24.65
2022-09-30T22:09:02.291Z,25.45
2022-09-30T22:11:50.672Z,25.55
2022-09-30T22:14:38.573Z,21.75
2022-09-30T22:17:27.030Z,23.65
2022-09-30T22:20:15.123Z,25.20
2022-09-30T22:23:03.335Z,25.48
2022-09-30T22:25:52.015Z,23.25
2022-09-30T22:28:40.436Z,25.25
2022-09-30T22:31:32.181Z,26.70
2022-09-30T22:34:41.299Z,26.88
2022-09-30T22:38:07.885Z,25.13
2022-09-30T22:40:56.490Z,24.70
2022-09-30T22:43:44.966Z,28.02
2022-09-30T22:46:34.471Z,31.20
2022-09-30T22:49:24.766Z,33.40
2022-09-30T22:52:14.303Z,28.48
2022-09-30T22:55:02.659Z,24.35
2022-09-30T22:57:51.899Z,30.35
2022-09-30T23:00:40.193Z,24.17
2022-09-30T23:03:28.658Z,22.30
2022-09-30T23:06:16.963Z,24.33
2022-09-30T23:09:06.131Z,26.23
2022-09-30T23:11:55.513Z,30.17
2022-09-30T23:14:43.361Z,28.17
2022-09-30T23:17:31.545Z,29.10
2022-09-30T23:20:20.194Z,28.25
2022-09-30T23:23:08.321Z,28.02
2022-09-30T23:26:02.934Z,28.15
2022-09-30T23:29:05.919Z,28.40
2022-09-30T23:31:54.892Z,25.67
2022-09-30T23:34:43.290Z,27.67
2022-09-30T23:37:31.338Z,24.90
2022-09-30T23:40:20.462Z,27.80
2022-09-30T23:43:08.528Z,26.92
2022-09-30T23:45:57.773Z,24.45
2022-09-30T23:48:46.091Z,25.92
2022-09-30T23:51:35.035Z,28.35
2022-09-30T23:54:23.012Z,24.92
2022-09-30T23:57:12.118Z,27.80
2022-09-30T23:59:59.873Z,27.60
